createdAt,value
2018-04-29T00:00:58.281Z,96.80
2018-04-29T00:02:06.933Z,96.70
2018-04-29T00:03:15.673Z,96.70
2018-04-29T00:04:25.041Z,96.80
2018-04-29T00:05:33.643Z,96.80
2018-04-29T00:06:42.483Z,97.00
2018-04-29T00:07:51.156Z,97.10
2018-04-29T00:08:59.823Z,97.10
2018-04-29T00:10:08.468Z,97.10
2018-04-29T00:11:17.371Z,97.10
2018-04-29T00:12:25.965Z,97.20
2018-04-29T00:13:34.632Z,97.30
2018-04-29T00:14:43.410Z,97.30
2018-04-29T00:15:52.100Z,97.30
2018-04-29T00:17:00.846Z,97.30
2018-04-29T00:18:09.422Z,97.40
2018-04-29T00:19:18.903Z,97.40
2018-04-29T00:20:27.573Z,97.40
2018-04-29T00:21:36.242Z,97.40
2018-04-29T00:22:44.945Z,97.40
2018-04-29T00:23:53.738Z,97.50
2018-04-29T00:25:02.394Z,97.50
2018-04-29T00:26:11.033Z,97.50
2018-04-29T00:27:19.659Z,97.50
2018-04-29T00:28:28.249Z,97.40
2018-04-29T00:29:36.965Z,97.50
2018-04-29T00:30:45.548Z,97.50
2018-04-29T00:31:54.098Z,97.50
2018-04-29T00:33:02.770Z,97.50
2018-04-29T00:34:11.527Z,97.50
2018-04-29T00:35:20.225Z,97.60
2018-04-29T00:36:28.957Z,97.70
2018-04-29T00:37:37.717Z,97.70
2018-04-29T00:38:46.428Z,97.80
2018-04-29T00:39:55.045Z,97.80
2018-04-29T00:41:05.381Z,97.80
2018-04-29T00:42:14.214Z,97.80
2018-04-29T00:43:22.859Z,97.80
2018-04-29T00:44:31.692Z,97.90
2018-04-29T00:45:41.066Z,98.10
2018-04-29T00:46:49.694Z,98.10
2018-04-29T00:47:58.362Z,98.10
2018-04-29T00:49:07.145Z,98.00
2018-04-29T00:50:15.940Z,98.00
2018-04-29T00:51:36.787Z,98.00
2018-04-29T00:52:45.533Z,98.10
2018-04-29T00:53:54.944Z,98.20
2018-04-29T00:55:03.572Z,98.20
2018-04-29T00:56:12.406Z,98.20
2018-04-29T00:57:21.216Z,98.20
2018-04-29T00:58:29.887Z,98.30
2018-04-29T00:59:38.651Z,98.30
2018-04-29T01:00:47.292Z,98.30
2018-04-29T01:01:55.936Z,98.10
2018-04-29T01:03:04.540Z,98.10
2018-04-29T01:04:13.268Z,98.20
2018-04-29T01:05:22.080Z,97.90
2018-04-29T01:06:30.704Z,97.80
2018-04-29T01:07:39.414Z,98.00
2018-04-29T01:08:48.307Z,98.00
2018-04-29T01:09:56.996Z,98.10
2018-04-29T01:11:05.594Z,98.00
2018-04-29T01:12:14.962Z,98.00
2018-04-29T01:13:23.760Z,97.90
2018-04-29T01:14:32.378Z,98.00
2018-04-29T01:15:41.067Z,98.10
2018-04-29T01:16:50.416Z,98.10
2018-04-29T01:17:59.130Z,98.10
2018-04-29T01:19:07.849Z,97.90
2018-04-29T01:20:16.526Z,97.90
2018-04-29T01:21:26.108Z,98.00
2018-04-29T01:22:34.808Z,97.90
2018-04-29T01:23:44.258Z,97.80
2018-04-29T01:24:53.763Z,97.80
2018-04-29T01:26:03.183Z,97.80
2018-04-29T01:27:11.902Z,97.80
2018-04-29T01:28:21.214Z,97.90
2018-04-29T01:29:29.906Z,97.90
2018-04-29T01:30:38.539Z,97.90
2018-04-29T01:31:47.239Z,97.90
2018-04-29T01:32:55.947Z,97.90
2018-04-29T01:34:04.524Z,97.90
2018-04-29T01:35:13.113Z,97.90
2018-04-29T01:36:21.777Z,97.90
2018-04-29T01:37:30.466Z,97.90
2018-04-29T01:38:39.909Z,98.00
2018-04-29T01:39:50.257Z,98.00
2018-04-29T01:40:58.843Z,98.00
2018-04-29T01:42:07.586Z,97.90
2018-04-29T01:43:16.301Z,97.80
2018-04-29T01:44:25.717Z,97.70
2018-04-29T01:45:34.417Z,97.70
2018-04-29T01:46:43.126Z,97.70
2018-04-29T01:47:51.830Z,97.60
2018-04-29T01:49:00.491Z,97.60
2018-04-29T01:50:09.145Z,97.60
2018-04-29T01:51:17.790Z,97.80
2018-04-29T01:52:26.464Z,97.70
2018-04-29T01:53:35.103Z,97.60
2018-04-29T01:54:43.935Z,97.60
2018-04-29T01:55:53.497Z,97.60
2018-04-29T01:57:02.109Z,97.40
2018-04-29T01:58:10.735Z,97.50
2018-04-29T01:59:19.446Z,97.50
2018-04-29T02:00:28.163Z,97.60
2018-04-29T02:01:36.789Z,97.50
2018-04-29T02:02:45.411Z,97.40
2018-04-29T02:03:54.023Z,97.40
2018-04-29T02:05:02.710Z,97.40
2018-04-29T02:06:11.340Z,96.90
2018-04-29T02:07:20.027Z,96.90
2018-04-29T02:08:28.808Z,96.80
2018-04-29T02:09:37.421Z,96.90
2018-04-29T02:10:46.116Z,96.80
2018-04-29T02:11:55.018Z,96.70
2018-04-29T02:13:03.739Z,96.50
2018-04-29T02:14:12.540Z,96.20
2018-04-29T02:15:21.200Z,96.20
2018-04-29T02:16:29.898Z,96.20
2018-04-29T02:17:38.555Z,96.30
2018-04-29T02:18:47.123Z,96.40
2018-04-29T02:19:55.892Z,96.40
2018-04-29T02:21:05.303Z,96.30
2018-04-29T02:22:14.082Z,96.50
2018-04-29T02:23:22.809Z,96.60
2018-04-29T02:24:31.544Z,96.70
2018-04-29T02:25:40.354Z,96.70
2018-04-29T02:26:49.063Z,96.80
2018-04-29T02:27:57.653Z,96.90
2018-04-29T02:29:06.338Z,96.90
2018-04-29T02:30:15.829Z,97.00
2018-04-29T02:31:24.721Z,97.00
2018-04-29T02:32:33.352Z,97.10
2018-04-29T02:33:42.248Z,97.40
2018-04-29T02:34:51.069Z,97.20
2018-04-29T02:36:00.510Z,97.30
2018-04-29T02:37:09.112Z,97.30
2018-04-29T02:38:17.883Z,97.30
2018-04-29T02:39:26.661Z,97.20
2018-04-29T02:40:37.009Z,97.30
2018-04-29T02:41:45.710Z,97.30
2018-04-29T02:42:55.316Z,97.90
2018-04-29T02:44:04.298Z,97.60
2018-04-29T02:45:13.067Z,97.60
2018-04-29T02:46:21.878Z,97.70
2018-04-29T02:47:31.207Z,97.70
2018-04-29T02:48:39.908Z,97.70
2018-04-29T02:49:48.628Z,97.70
2018-04-29T02:50:57.294Z,97.70
2018-04-29T02:52:05.899Z,97.70
2018-04-29T02:53:14.441Z,97.80
2018-04-29T02:54:24.155Z,97.90
2018-04-29T02:55:32.710Z,97.90
2018-04-29T02:56:41.531Z,98.00
2018-04-29T02:57:50.266Z,98.00
2018-04-29T02:58:58.890Z,98.00
2018-04-29T03:00:07.531Z,98.00
2018-04-29T03:01:16.250Z,98.00
2018-04-29T03:02:25.639Z,98.40
2018-04-29T03:03:34.495Z,98.10
2018-04-29T03:04:44.090Z,98.30
2018-04-29T03:05:53.644Z,98.50
2018-04-29T03:07:02.448Z,98.50
2018-04-29T03:08:11.139Z,98.60
2018-04-29T03:09:19.845Z,98.60
2018-04-29T03:10:28.769Z,98.60
2018-04-29T03:11:37.483Z,98.60
2018-04-29T03:12:46.186Z,98.60
2018-04-29T03:13:55.066Z,98.70
2018-04-29T03:15:03.830Z,98.80
2018-04-29T03:16:12.622Z,98.90
2018-04-29T03:17:22.086Z,99.30
2018-04-29T03:18:30.871Z,99.00
2018-04-29T03:19:39.577Z,99.00
2018-04-29T03:20:48.267Z,98.90
2018-04-29T03:21:56.898Z,99.00
2018-04-29T03:23:05.505Z,99.00
2018-04-29T03:24:14.131Z,99.10
2018-04-29T03:25:22.818Z,99.10
2018-04-29T03:26:31.553Z,99.10
2018-04-29T03:27:40.183Z,99.10
2018-04-29T03:28:48.909Z,99.20
2018-04-29T03:29:57.652Z,99.30
2018-04-29T03:31:06.474Z,99.30
2018-04-29T03:32:15.088Z,99.20
2018-04-29T03:33:24.534Z,99.10
2018-04-29T03:34:33.189Z,99.10
2018-04-29T03:35:42.667Z,99.20
2018-04-29T03:36:52.133Z,99.20
2018-04-29T03:38:00.835Z,99.20
2018-04-29T03:39:09.632Z,99.30
2018-04-29T03:40:18.492Z,99.20
2018-04-29T03:41:28.094Z,99.30
2018-04-29T03:42:36.929Z,99.30
2018-04-29T03:43:45.634Z,99.30
2018-04-29T03:44:54.307Z,99.50
2018-04-29T03:46:03.113Z,99.30
2018-04-29T03:47:11.870Z,99.20
2018-04-29T03:48:20.468Z,99.30
2018-04-29T03:49:29.266Z,99.50
2018-04-29T03:50:37.866Z,99.50
2018-04-29T03:51:46.571Z,99.40
2018-04-29T03:52:55.329Z,99.40
2018-04-29T03:54:04.027Z,99.50
2018-04-29T03:55:12.594Z,99.50
2018-04-29T03:56:21.285Z,99.60
2018-04-29T03:57:41.886Z,99.70
2018-04-29T03:59:14.385Z,99.70
2018-04-29T04:00:35.037Z,99.70
2018-04-29T04:01:56.575Z,99.70
2018-04-29T04:03:17.326Z,99.70
2018-04-29T04:04:26.134Z,99.80
2018-04-29T04:05:34.660Z,99.70
2018-04-29T04:06:43.439Z,99.70
2018-04-29T04:07:52.009Z,99.70
2018-04-29T04:09:00.611Z,99.80
2018-04-29T04:10:09.286Z,99.90
2018-04-29T04:11:18.162Z,99.80
2018-04-29T04:12:26.906Z,99.80
2018-04-29T04:13:35.643Z,99.70
2018-04-29T04:14:44.339Z,99.80
2018-04-29T04:15:53.173Z,99.80
2018-04-29T04:17:01.875Z,99.60
2018-04-29T04:18:10.643Z,99.60
2018-04-29T04:19:19.353Z,99.60
2018-04-29T04:20:27.976Z,99.60
2018-04-29T04:21:36.675Z,99.60
2018-04-29T04:22:45.343Z,99.60
2018-04-29T04:23:54.079Z,99.60
2018-04-29T04:25:04.363Z,99.60
2018-04-29T04:26:13.174Z,99.60
2018-04-29T04:27:21.764Z,99.70
2018-04-29T04:28:30.362Z,99.70
2018-04-29T04:29:39.135Z,99.70
2018-04-29T04:30:47.838Z,99.60
2018-04-29T04:31:56.623Z,99.50
2018-04-29T04:33:05.339Z,99.30
2018-04-29T04:34:14.131Z,99.30
2018-04-29T04:35:22.848Z,99.10
2018-04-29T04:36:31.706Z,99.10
2018-04-29T04:37:40.463Z,99.20
2018-04-29T04:38:49.151Z,99.40
2018-04-29T04:39:57.815Z,99.50
2018-04-29T04:41:06.391Z,99.60
2018-04-29T04:42:15.213Z,99.40
2018-04-29T04:43:24.630Z,99.30
2018-04-29T04:44:33.374Z,99.20
2018-04-29T04:45:42.886Z,99.30
2018-04-29T04:46:51.693Z,99.20
2018-04-29T04:48:00.323Z,99.10
2018-04-29T04:49:09.059Z,98.80
2018-04-29T04:50:17.850Z,98.70
2018-04-29T04:51:26.559Z,98.70
2018-04-29T04:52:35.431Z,98.60
2018-04-29T04:53:44.054Z,98.60
2018-04-29T04:54:52.737Z,98.60
2018-04-29T04:56:02.100Z,98.70
2018-04-29T04:57:10.802Z,98.70
2018-04-29T04:58:19.409Z,98.70
2018-04-29T04:59:28.819Z,98.70
2018-04-29T05:00:37.587Z,98.50
2018-04-29T05:01:47.164Z,98.80
2018-04-29T05:02:55.806Z,98.80
2018-04-29T05:04:04.636Z,98.70
2018-04-29T05:05:13.279Z,98.70
2018-04-29T05:06:21.951Z,98.70
2018-04-29T05:07:30.560Z,98.60
2018-04-29T05:08:39.223Z,98.80
2018-04-29T05:09:48.667Z,98.50
2018-04-29T05:10:57.386Z,98.40
2018-04-29T05:12:05.970Z,98.60
2018-04-29T05:13:14.745Z,98.70
2018-04-29T05:14:24.226Z,98.80
2018-04-29T05:15:32.943Z,98.70
2018-04-29T05:16:41.690Z,98.80
2018-04-29T05:17:50.381Z,98.70
2018-04-29T05:18:59.043Z,98.60
2018-04-29T05:20:07.812Z,98.50
2018-04-29T05:21:16.542Z,98.70
2018-04-29T05:22:25.243Z,98.70
2018-04-29T05:23:33.856Z,98.60
2018-04-29T05:24:42.615Z,98.70
2018-04-29T05:25:51.154Z,98.80
2018-04-29T05:27:01.455Z,98.90
2018-04-29T05:28:11.001Z,98.60
2018-04-29T05:29:19.494Z,98.60
2018-04-29T05:30:28.303Z,98.60
2018-04-29T05:31:36.971Z,98.70
2018-04-29T05:32:45.586Z,98.60
2018-04-29T05:33:54.252Z,98.80
2018-04-29T05:35:02.967Z,98.80
2018-04-29T05:36:11.551Z,98.70
2018-04-29T05:37:20.242Z,98.60
2018-04-29T05:38:28.897Z,98.70
2018-04-29T05:39:37.535Z,98.70
2018-04-29T05:40:46.264Z,98.60
2018-04-29T05:41:55.762Z,98.70
2018-04-29T05:43:04.475Z,98.60
2018-04-29T05:44:13.053Z,98.60
2018-04-29T05:45:21.704Z,98.70
2018-04-29T05:46:30.694Z,98.60
2018-04-29T05:47:39.312Z,98.50
2018-04-29T05:48:48.852Z,98.40
2018-04-29T05:49:57.627Z,98.40
2018-04-29T05:51:06.267Z,98.40
2018-04-29T05:52:14.999Z,98.40
2018-04-29T05:53:23.672Z,98.40
2018-04-29T05:54:33.226Z,98.40
2018-04-29T05:55:42.074Z,98.40
2018-04-29T05:56:50.758Z,98.30
2018-04-29T05:58:00.975Z,98.20
2018-04-29T05:59:09.700Z,98.20
2018-04-29T06:00:18.304Z,98.50
2018-04-29T06:01:26.902Z,98.40
2018-04-29T06:02:35.529Z,98.10
2018-04-29T06:03:44.259Z,97.80
2018-04-29T06:04:52.839Z,97.80
2018-04-29T06:06:02.296Z,97.90
2018-04-29T06:07:11.078Z,97.90
2018-04-29T06:08:20.516Z,97.80
2018-04-29T06:09:29.264Z,97.80
2018-04-29T06:10:37.927Z,97.60
2018-04-29T06:11:46.527Z,97.60
2018-04-29T06:12:55.197Z,97.60
2018-04-29T06:14:03.787Z,97.60
2018-04-29T06:15:13.238Z,97.70
2018-04-29T06:16:21.905Z,97.50
2018-04-29T06:17:31.418Z,97.40
2018-04-29T06:18:40.015Z,97.40
2018-04-29T06:19:48.607Z,97.50
2018-04-29T06:20:57.281Z,97.40
2018-04-29T06:22:05.974Z,97.30
2018-04-29T06:23:14.735Z,97.60
2018-04-29T06:24:24.300Z,97.40
2018-04-29T06:25:32.895Z,97.30
2018-04-29T06:26:41.557Z,97.30
2018-04-29T06:27:50.255Z,97.20
2018-04-29T06:28:58.999Z,97.20
2018-04-29T06:30:07.916Z,97.20
2018-04-29T06:31:17.438Z,97.20
2018-04-29T06:32:26.072Z,97.10
2018-04-29T06:33:35.528Z,97.10
2018-04-29T06:34:44.175Z,97.00
2018-04-29T06:35:53.465Z,96.80
2018-04-29T06:37:02.907Z,96.90
2018-04-29T06:38:12.274Z,96.80
2018-04-29T06:39:20.978Z,96.80
2018-04-29T06:40:29.551Z,96.80
2018-04-29T06:41:38.154Z,96.60
2018-04-29T06:42:46.747Z,96.70
2018-04-29T06:43:55.365Z,96.70
2018-04-29T06:45:04.925Z,96.70
2018-04-29T06:46:13.648Z,96.70
2018-04-29T06:47:22.328Z,96.60
2018-04-29T06:48:31.084Z,96.40
2018-04-29T06:49:39.832Z,96.30
2018-04-29T06:50:48.457Z,96.20
2018-04-29T06:51:57.171Z,96.10
2018-04-29T06:53:05.780Z,96.10
2018-04-29T06:54:14.516Z,96.10
2018-04-29T06:55:23.834Z,96.10
2018-04-29T06:56:32.562Z,96.10
2018-04-29T06:57:41.230Z,95.80
2018-04-29T06:58:49.961Z,95.60
2018-04-29T06:59:58.643Z,95.70
2018-04-29T07:01:07.167Z,95.40
2018-04-29T07:02:15.740Z,95.20
2018-04-29T07:03:24.378Z,95.00
2018-04-29T07:04:33.226Z,95.10
2018-04-29T07:05:42.013Z,95.10
2018-04-29T07:06:50.651Z,95.00
2018-04-29T07:07:59.230Z,94.80
2018-04-29T07:09:07.924Z,94.80
2018-04-29T07:10:16.657Z,94.90
2018-04-29T07:11:25.238Z,95.00
2018-04-29T07:12:33.891Z,95.20
2018-04-29T07:13:42.782Z,95.10
2018-04-29T07:14:52.229Z,95.30
2018-04-29T07:16:00.918Z,95.20
2018-04-29T07:17:09.680Z,95.20
2018-04-29T07:18:18.418Z,94.80
2018-04-29T07:19:27.196Z,94.60
2018-04-29T07:20:35.898Z,94.60
2018-04-29T07:21:44.690Z,94.70
2018-04-29T07:22:54.491Z,94.80
2018-04-29T07:24:03.078Z,94.70
2018-04-29T07:25:11.632Z,94.50
2018-04-29T07:26:20.364Z,94.40
2018-04-29T07:27:29.838Z,94.20
2018-04-29T07:28:38.701Z,94.20
2018-04-29T07:29:47.184Z,94.30
2018-04-29T07:30:55.951Z,94.40
2018-04-29T07:32:05.434Z,94.30
2018-04-29T07:33:13.990Z,94.20
2018-04-29T07:34:22.556Z,94.30
2018-04-29T07:35:31.170Z,94.20
2018-04-29T07:36:39.866Z,94.20
2018-04-29T07:37:48.471Z,94.10
2018-04-29T07:38:57.103Z,93.80
2018-04-29T07:40:05.906Z,93.90
2018-04-29T07:41:15.256Z,94.00
2018-04-29T07:42:23.971Z,94.00
2018-04-29T07:43:32.542Z,94.10
2018-04-29T07:44:41.247Z,94.20
2018-04-29T07:45:49.921Z,94.50
2018-04-29T07:46:58.673Z,94.40
2018-04-29T07:48:08.133Z,94.20
2018-04-29T07:49:16.848Z,94.20
2018-04-29T07:50:25.502Z,94.00
2018-04-29T07:51:34.386Z,93.70
2018-04-29T07:52:43.206Z,93.70
2018-04-29T07:53:51.766Z,93.60
2018-04-29T07:55:00.495Z,93.40
2018-04-29T07:56:09.194Z,93.40
2018-04-29T07:57:18.652Z,93.20
2018-04-29T07:58:27.355Z,93.00
2018-04-29T07:59:36.053Z,92.90
2018-04-29T08:00:44.687Z,93.00
2018-04-29T08:01:53.420Z,93.00
2018-04-29T08:03:01.976Z,93.10
2018-04-29T08:04:10.495Z,93.10
2018-04-29T08:05:19.247Z,93.20
2018-04-29T08:06:27.972Z,92.90
2018-04-29T08:07:37.369Z,92.90
2018-04-29T08:08:46.079Z,92.90
2018-04-29T08:09:54.783Z,92.90
2018-04-29T08:11:03.889Z,92.80
2018-04-29T08:12:12.703Z,92.80
2018-04-29T08:13:22.196Z,92.70
2018-04-29T08:14:30.978Z,92.70
2018-04-29T08:15:40.483Z,92.70
2018-04-29T08:16:49.319Z,92.70
2018-04-29T08:17:57.995Z,92.70
2018-04-29T08:19:06.732Z,92.70
2018-04-29T08:20:16.115Z,92.80
2018-04-29T08:21:24.794Z,92.80
2018-04-29T08:22:33.470Z,92.70
2018-04-29T08:23:42.039Z,92.60
2018-04-29T08:24:50.821Z,92.50
2018-04-29T08:25:59.579Z,92.60
2018-04-29T08:27:08.197Z,92.60
2018-04-29T08:28:17.764Z,92.50
2018-04-29T08:29:26.414Z,92.50
2018-04-29T08:30:35.133Z,92.40
2018-04-29T08:31:43.739Z,92.40
2018-04-29T08:32:52.363Z,92.20
2018-04-29T08:34:01.091Z,92.20
2018-04-29T08:35:09.733Z,92.10
2018-04-29T08:36:18.450Z,92.00
2018-04-29T08:37:27.149Z,91.90
2018-04-29T08:38:35.666Z,91.90
2018-04-29T08:39:44.312Z,92.00
2018-04-29T08:40:53.800Z,92.10
2018-04-29T08:42:02.625Z,92.20
2018-04-29T08:43:11.315Z,92.00
2018-04-29T08:44:19.996Z,92.30
2018-04-29T08:45:28.686Z,92.00
2018-04-29T08:46:38.065Z,91.70
2018-04-29T08:47:46.627Z,91.70
2018-04-29T08:48:55.370Z,91.60
2018-04-29T08:50:03.982Z,91.60
2018-04-29T08:51:12.705Z,91.60
2018-04-29T08:52:21.476Z,91.40
2018-04-29T08:53:30.126Z,91.20
2018-04-29T08:54:38.767Z,91.30
2018-04-29T08:55:47.539Z,91.40
2018-04-29T08:56:56.037Z,91.50
2018-04-29T08:58:05.483Z,91.30
2018-04-29T08:59:14.220Z,91.20
2018-04-29T09:00:23.688Z,91.20
2018-04-29T09:01:33.118Z,91.40
2018-04-29T09:02:41.847Z,91.30
2018-04-29T09:03:50.621Z,91.20
2018-04-29T09:04:59.242Z,91.10
2018-04-29T09:06:07.950Z,91.00
2018-04-29T09:07:17.519Z,91.00
2018-04-29T09:08:26.082Z,91.00
2018-04-29T09:09:34.810Z,90.90
2018-04-29T09:10:43.406Z,90.90
2018-04-29T09:11:52.061Z,90.90
2018-04-29T09:13:00.645Z,90.80
2018-04-29T09:14:09.489Z,90.70
2018-04-29T09:15:18.205Z,90.60
2018-04-29T09:16:27.764Z,90.70
2018-04-29T09:17:36.452Z,90.70
2018-04-29T09:18:45.107Z,90.50
2018-04-29T09:19:54.015Z,90.40
2018-04-29T09:21:02.767Z,90.60
2018-04-29T09:22:11.389Z,90.30
2018-04-29T09:23:20.024Z,90.30
2018-04-29T09:24:28.679Z,90.30
2018-04-29T09:25:37.405Z,90.30
2018-04-29T09:26:45.972Z,90.30
2018-04-29T09:27:54.682Z,90.20
2018-04-29T09:29:03.303Z,90.20
2018-04-29T09:30:12.008Z,90.10
2018-04-29T09:31:20.643Z,90.20
2018-04-29T09:32:29.497Z,90.30
2018-04-29T09:33:38.784Z,89.80
2018-04-29T09:34:47.477Z,89.70
2018-04-29T09:35:56.168Z,89.80
2018-04-29T09:37:04.964Z,89.90
2018-04-29T09:38:13.500Z,89.90
2018-04-29T09:39:22.079Z,89.80
2018-04-29T09:40:30.828Z,89.60
2018-04-29T09:41:39.434Z,89.40
2018-04-29T09:42:48.043Z,89.60
2018-04-29T09:43:56.798Z,89.60
2018-04-29T09:45:05.458Z,89.30
2018-04-29T09:46:14.208Z,89.50
2018-04-29T09:47:22.889Z,89.20
2018-04-29T09:48:31.706Z,89.20
2018-04-29T09:49:41.269Z,88.40
2018-04-29T09:50:49.903Z,88.40
2018-04-29T09:51:58.705Z,88.10
2018-04-29T09:53:07.422Z,88.10
2018-04-29T09:54:16.191Z,88.40
2018-04-29T09:55:25.082Z,88.40
2018-04-29T09:56:33.749Z,87.60
2018-04-29T09:57:42.547Z,87.90
2018-04-29T09:58:51.139Z,88.10
2018-04-29T10:00:00.573Z,87.00
2018-04-29T10:01:15.004Z,87.00
2018-04-29T10:02:24.419Z,87.40
2018-04-29T10:03:33.105Z,87.10
2018-04-29T10:04:41.744Z,85.90
2018-04-29T10:05:50.404Z,85.60
2018-04-29T10:06:59.910Z,85.50
2018-04-29T10:08:08.616Z,85.40
2018-04-29T10:09:18.130Z,84.50
2018-04-29T10:10:27.765Z,84.20
2018-04-29T10:11:36.297Z,84.10
2018-04-29T10:12:44.867Z,84.10
2018-04-29T10:13:53.495Z,83.90
2018-04-29T10:15:02.208Z,83.20
2018-04-29T10:16:10.885Z,82.50
2018-04-29T10:17:19.550Z,82.10
2018-04-29T10:18:28.285Z,82.30
2018-04-29T10:19:36.830Z,82.30
2018-04-29T10:20:45.359Z,81.80
2018-04-29T10:21:54.683Z,82.00
2018-04-29T10:23:03.526Z,82.00
2018-04-29T10:24:12.386Z,82.00
2018-04-29T10:25:21.120Z,81.70
2018-04-29T10:26:29.815Z,81.70
2018-04-29T10:27:38.475Z,81.70
2018-04-29T10:28:47.294Z,81.80
2018-04-29T10:29:55.961Z,81.60
2018-04-29T10:31:05.106Z,81.50
2018-04-29T10:32:13.909Z,81.30
2018-04-29T10:33:23.358Z,81.70
2018-04-29T10:34:31.967Z,81.70
2018-04-29T10:35:40.680Z,81.80
2018-04-29T10:36:49.427Z,82.00
2018-04-29T10:37:58.100Z,82.10
2018-04-29T10:39:06.770Z,81.50
2018-04-29T10:40:15.381Z,81.10
2018-04-29T10:41:23.976Z,80.90
2018-04-29T10:42:33.406Z,80.90
2018-04-29T10:43:42.281Z,80.80
2018-04-29T10:44:50.999Z,80.80
2018-04-29T10:45:59.488Z,80.60
2018-04-29T10:47:09.012Z,80.10
2018-04-29T10:48:17.673Z,80.00
2018-04-29T10:49:26.517Z,79.60
2018-04-29T10:50:35.235Z,79.70
2018-04-29T10:51:43.972Z,79.80
2018-04-29T10:52:52.544Z,79.60
2018-04-29T10:54:01.144Z,79.60
2018-04-29T10:55:09.893Z,79.80
2018-04-29T10:56:18.708Z,79.70
2018-04-29T10:57:27.260Z,78.60
2018-04-29T10:58:35.928Z,78.70
2018-04-29T10:59:44.531Z,78.30
2018-04-29T11:00:53.271Z,77.70
2018-04-29T11:02:01.928Z,78.10
2018-04-29T11:03:10.660Z,77.50
2018-04-29T11:04:19.245Z,77.40
2018-04-29T11:05:27.858Z,76.70
2018-04-29T11:06:36.376Z,76.20
2018-04-29T11:07:44.901Z,76.30
2018-04-29T11:08:53.596Z,75.90
2018-04-29T11:10:02.183Z,76.10
2018-04-29T11:11:10.890Z,75.60
2018-04-29T11:12:19.489Z,75.80
2018-04-29T11:13:28.963Z,75.70
2018-04-29T11:14:37.560Z,75.70
2018-04-29T11:15:46.285Z,76.40
2018-04-29T11:16:54.971Z,75.70
2018-04-29T11:18:03.588Z,76.20
2018-04-29T11:19:12.293Z,75.90
2018-04-29T11:20:20.895Z,76.00
2018-04-29T11:21:29.574Z,76.10
2018-04-29T11:22:38.313Z,76.30
2018-04-29T11:23:46.927Z,75.50
2018-04-29T11:24:55.509Z,75.10
2018-04-29T11:26:05.087Z,73.80
2018-04-29T11:27:13.705Z,73.80
2018-04-29T11:28:22.352Z,73.70
2018-04-29T11:29:31.843Z,72.80
2018-04-29T11:30:40.608Z,72.80
2018-04-29T11:31:49.213Z,72.40
2018-04-29T11:32:57.929Z,72.60
2018-04-29T11:34:07.487Z,72.80
2018-04-29T11:35:16.153Z,72.70
2018-04-29T11:36:24.793Z,71.60
2018-04-29T11:37:33.521Z,71.40
2018-04-29T11:38:42.087Z,71.00
2018-04-29T11:39:50.701Z,70.70
2018-04-29T11:40:59.361Z,70.90
2018-04-29T11:42:08.075Z,71.10
2018-04-29T11:43:17.728Z,71.20
2018-04-29T11:44:26.328Z,71.20
2018-04-29T11:45:34.968Z,70.80
2018-04-29T11:46:43.526Z,70.40
2018-04-29T11:47:52.202Z,70.60
2018-04-29T11:49:00.889Z,71.40
2018-04-29T11:50:09.639Z,71.40
2018-04-29T11:51:18.421Z,70.70
2018-04-29T11:52:27.043Z,70.40
2018-04-29T11:53:35.617Z,70.00
2018-04-29T11:54:44.302Z,70.50
2018-04-29T11:55:53.726Z,70.30
2018-04-29T11:57:02.437Z,70.30
2018-04-29T11:58:11.890Z,69.10
2018-04-29T11:59:20.547Z,69.10
2018-04-29T12:00:29.271Z,68.60
2018-04-29T12:01:37.940Z,67.30
2018-04-29T12:02:46.631Z,66.50
2018-04-29T12:03:55.296Z,66.10
2018-04-29T12:05:03.959Z,66.00
2018-04-29T12:06:12.578Z,66.50
2018-04-29T12:07:21.394Z,65.20
2018-04-29T12:08:30.019Z,64.70
2018-04-29T12:09:38.628Z,64.70
2018-04-29T12:10:47.230Z,63.90
2018-04-29T12:11:56.012Z,63.00
2018-04-29T12:13:04.824Z,62.60
2018-04-29T12:14:13.514Z,62.10
2018-04-29T12:15:26.242Z,61.90
2018-04-29T12:16:34.900Z,61.50
2018-04-29T12:17:43.671Z,61.50
2018-04-29T12:18:52.466Z,61.70
2018-04-29T12:20:01.173Z,62.20
2018-04-29T12:21:09.834Z,62.20
2018-04-29T12:22:18.441Z,61.80
2018-04-29T12:23:27.063Z,61.10
2018-04-29T12:24:35.798Z,60.20
2018-04-29T12:25:44.435Z,60.40
2018-04-29T12:26:53.097Z,59.70
2018-04-29T12:28:01.724Z,59.60
2018-04-29T12:29:10.427Z,59.10
2018-04-29T12:30:19.034Z,58.10
2018-04-29T12:31:27.638Z,58.70
2018-04-29T12:32:37.180Z,57.90
2018-04-29T12:33:46.045Z,57.90
2018-04-29T12:34:54.725Z,57.10
2018-04-29T12:36:03.272Z,57.10
2018-04-29T12:37:11.902Z,57.00
2018-04-29T12:38:20.673Z,56.70
2018-04-29T12:39:29.431Z,55.80
2018-04-29T12:40:38.141Z,55.90
2018-04-29T12:41:46.758Z,55.50
2018-04-29T12:42:55.404Z,55.40
2018-04-29T12:44:03.932Z,55.50
2018-04-29T12:45:12.632Z,55.50
2018-04-29T12:46:21.285Z,55.30
2018-04-29T12:47:29.954Z,55.10
2018-04-29T12:48:38.755Z,54.70
2018-04-29T12:49:48.163Z,54.80
2018-04-29T12:50:56.977Z,54.80
2018-04-29T12:52:05.560Z,54.20
2018-04-29T12:53:14.271Z,53.60
2018-04-29T12:54:23.612Z,53.60
2018-04-29T12:55:32.411Z,53.60
2018-04-29T12:56:41.118Z,53.50
2018-04-29T12:57:49.863Z,53.20
2018-04-29T12:58:58.475Z,52.90
2018-04-29T13:00:07.175Z,52.50
2018-04-29T13:01:15.732Z,52.20
2018-04-29T13:02:24.433Z,51.70
2018-04-29T13:03:33.136Z,50.90
2018-04-29T13:04:41.778Z,50.90
2018-04-29T13:05:50.447Z,51.20
2018-04-29T13:06:59.249Z,50.20
2018-04-29T13:08:08.578Z,49.60
2018-04-29T13:09:17.148Z,49.60
2018-04-29T13:10:25.808Z,49.30
2018-04-29T13:11:34.482Z,49.00
2018-04-29T13:12:43.220Z,48.40
2018-04-29T13:13:52.019Z,48.30
2018-04-29T13:15:01.364Z,48.20
2018-04-29T13:16:10.041Z,48.20
2018-04-29T13:17:18.743Z,47.80
2018-04-29T13:18:27.370Z,47.10
2018-04-29T13:19:36.007Z,47.10
2018-04-29T13:20:44.824Z,46.90
2018-04-29T13:21:53.633Z,46.70
2018-04-29T13:23:02.951Z,45.60
2018-04-29T13:24:11.619Z,45.60
2018-04-29T13:25:20.387Z,45.10
2018-04-29T13:26:28.977Z,45.00
2018-04-29T13:27:37.560Z,43.70
2018-04-29T13:28:46.246Z,43.90
2018-04-29T13:29:54.879Z,43.50
2018-04-29T13:31:04.371Z,43.40
2018-04-29T13:32:12.969Z,43.40
2018-04-29T13:33:21.675Z,43.50
2018-04-29T13:34:30.414Z,43.60
2018-04-29T13:35:39.137Z,44.20
2018-04-29T13:36:47.788Z,44.40
2018-04-29T13:37:56.501Z,44.70
2018-04-29T13:39:05.261Z,44.50
2018-04-29T13:40:14.619Z,44.30
2018-04-29T13:41:23.175Z,44.30
2018-04-29T13:42:31.825Z,44.30
2018-04-29T13:43:40.624Z,44.10
2018-04-29T13:44:49.453Z,43.80
2018-04-29T13:45:58.096Z,43.70
2018-04-29T13:47:06.679Z,43.20
2018-04-29T13:48:15.443Z,43.30
2018-04-29T13:49:24.131Z,43.10
2018-04-29T13:50:33.687Z,43.00
2018-04-29T13:51:42.332Z,43.00
2018-04-29T13:52:51.044Z,43.50
2018-04-29T13:53:59.934Z,43.70
2018-04-29T13:55:08.653Z,43.70
2018-04-29T13:56:18.120Z,43.80
2018-04-29T13:57:26.875Z,43.80
2018-04-29T13:58:35.667Z,43.20
2018-04-29T13:59:44.313Z,43.10
2018-04-29T14:00:52.991Z,42.90
2018-04-29T14:02:01.570Z,42.50
2018-04-29T14:03:10.308Z,42.30
2018-04-29T14:04:18.960Z,41.80
2018-04-29T14:05:27.653Z,41.90
2018-04-29T14:06:36.249Z,41.90
2018-04-29T14:07:44.936Z,41.90
2018-04-29T14:08:53.855Z,42.00
2018-04-29T14:10:02.475Z,42.00
2018-04-29T14:11:11.154Z,41.90
2018-04-29T14:12:19.763Z,41.50
2018-04-29T14:13:28.413Z,41.50
2018-04-29T14:14:37.041Z,41.30
2018-04-29T14:15:45.834Z,41.10
2018-04-29T14:16:54.505Z,40.90
2018-04-29T14:18:03.816Z,40.80
2018-04-29T14:19:12.456Z,40.80
2018-04-29T14:20:21.222Z,40.50
2018-04-29T14:21:29.997Z,40.30
2018-04-29T14:22:38.550Z,40.20
2018-04-29T14:23:47.278Z,40.00
2018-04-29T14:24:56.047Z,40.00
2018-04-29T14:26:04.856Z,40.10
2018-04-29T14:27:13.529Z,40.20
2018-04-29T14:28:22.216Z,40.00
2018-04-29T14:29:30.934Z,39.50
2018-04-29T14:30:39.643Z,39.50
2018-04-29T14:31:48.359Z,40.20
2018-04-29T14:32:57.094Z,39.90
2018-04-29T14:34:05.645Z,40.00
2018-04-29T14:35:14.217Z,39.60
2018-04-29T14:36:22.926Z,39.40
2018-04-29T14:37:31.594Z,39.50
2018-04-29T14:38:40.317Z,39.50
2018-04-29T14:39:49.002Z,39.00
2018-04-29T14:40:57.769Z,39.10
2018-04-29T14:42:06.389Z,39.10
2018-04-29T14:43:15.121Z,38.90
2018-04-29T14:44:23.907Z,38.80
2018-04-29T14:45:32.576Z,39.10
2018-04-29T14:46:41.316Z,39.30
2018-04-29T14:47:50.132Z,39.20